Time;durP1;ratioP1;P1;durP2;ratioP2;P2;SDS_P1;SDS_P2;PMS_P1;PMS_P2;Temp;Humidity;BMP_temperature;BMP_pressure;BME280_temperature;BME280_humidity;BME280_pressure;Samples;Min_cycle;Max_cycle;Signal;HPM_P1;HPM_P2
2023/10/22 00:01:02;;;;;;;5.95;4.22;;;;;;;11.57;96.94;99983.19;7397918;19;20032;-68
2023/10/22 00:03:31;;;;;;;8.02;4.68;;;;;;;11.57;97.07;99996.31;7397308;19;20031;-68
2023/10/22 00:05:59;;;;;;;6.47;4.30;;;;;;;11.58;97.10;99986.66;7397814;19;20019;-68
2023/10/22 00:08:27;;;;;;;4.53;4.13;;;;;;;11.58;97.17;99989.28;7396192;19;20087;-68
2023/10/22 00:10:56;;;;;;;7.80;3.67;;;;;;;11.58;97.14;99998.00;7397242;19;20514;-68
2023/10/22 00:13:24;;;;;;;4.25;3.88;;;;;;;11.57;97.30;99993.69;7397625;19;20035;-68
2023/10/22 00:15:53;;;;;;;4.90;3.40;;;;;;;11.57;97.38;100000.69;7395688;19;20074;-69
2023/10/22 00:18:24;;;;;;;4.28;3.88;;;;;;;11.58;97.35;99999.78;7395918;19;20074;-70
2023/10/22 00:20:52;;;;;;;4.40;4.00;;;;;;;11.57;97.56;99996.31;7397076;19;20074;-67
2023/10/22 00:23:21;;;;;;;4.07;3.65;;;;;;;11.58;97.68;99990.13;7396033;19;20636;-71
2023/10/22 00:25:49;;;;;;;7.15;4.00;;;;;;;11.58;97.68;99984.03;7397191;19;20018;-69
2023/10/22 00:28:17;;;;;;;4.18;3.78;;;;;;;11.60;97.74;99983.97;7395739;19;20018;-69
2023/10/22 00:30:49;;;;;;;5.60;4.38;;;;;;;11.62;97.47;99992.66;7396791;19;20510;-68
2023/10/22 00:33:17;;;;;;;5.22;3.90;;;;;;;11.63;97.64;99997.00;7395413;19;20074;-69
2023/10/22 00:35:56;;;;;;;4.97;3.85;;;;;;;11.65;97.45;100003.03;7396840;19;20031;-69
2023/10/22 00:38:24;;;;;;;5.15;3.70;;;;;;;11.65;97.53;100005.66;7395520;19;20039;-69
2023/10/22 00:40:53;;;;;;;6.38;4.70;;;;;;;11.65;97.50;100001.28;7396634;19;20069;-69
2023/10/22 00:43:21;;;;;;;6.85;4.75;;;;;;;11.66;97.40;99996.88;7394849;19;20078;-69
2023/10/22 00:45:50;;;;;;;4.45;4.03;;;;;;;11.66;97.51;99989.00;7395014;19;20077;-69
2023/10/22 00:48:20;;;;;;;9.02;4.20;;;;;;;11.67;97.46;99988.94;7395222;19;20077;-69
2023/10/22 00:50:51;;;;;;;4.32;3.92;;;;;;;11.69;97.61;99994.13;7396374;19;20031;-69
2023/10/22 00:53:20;;;;;;;4.78;4.03;;;;;;;11.71;97.50;100002.81;7396846;19;20022;-69
2023/10/22 00:55:50;;;;;;;6.93;4.88;;;;;;;11.70;97.38;99991.44;7396250;19;20073;-69
2023/10/22 00:58:21;;;;;;;5.82;4.50;;;;;;;11.70;97.52;99991.44;7395097;19;20014;-69
2023/10/22 01:00:50;;;;;;;6.18;5.25;;;;;;;11.70;97.51;99985.31;7396584;19;20019;-69
2023/10/22 01:03:18;;;;;;;6.72;5.55;;;;;;;11.70;97.43;99982.69;7395461;19;20036;-69
2023/10/22 01:05:47;;;;;;;5.82;5.07;;;;;;;11.71;97.38;99976.53;7395600;19;20010;-69
2023/10/22 01:08:18;;;;;;;5.30;4.80;;;;;;;11.70;97.64;99986.19;7394636;19;20019;-69
2023/10/22 01:10:47;;;;;;;5.40;4.80;;;;;;;11.70;97.68;99980.94;7396296;19;20070;-69
2023/10/22 01:13:16;;;;;;;4.75;4.35;;;;;;;11.70;97.67;99980.06;7396116;19;20031;-69
2023/10/22 01:15:45;;;;;;;9.18;5.07;;;;;;;11.71;97.65;99989.66;7395222;19;20006;-70
2023/10/22 01:18:14;;;;;;;5.93;5.35;;;;;;;11.70;97.73;99986.19;7394365;19;20037;-68
2023/10/22 01:20:42;;;;;;;7.05;5.30;;;;;;;11.70;97.68;99991.44;7395166;19;20031;-69
2023/10/22 01:23:14;;;;;;;6.22;5.35;;;;;;;11.69;97.75;99979.22;7394695;19;20420;-69
2023/10/22 01:25:43;;;;;;;6.15;5.30;;;;;;;11.68;97.75;99976.66;7394196;19;20018;-69
2023/10/22 01:28:33;;;;;;;6.82;4.85;;;;;;;11.67;97.78;99978.41;7394001;19;20042;-69
2023/10/22 01:31:04;;;;;;;5.60;4.55;;;;;;;11.68;97.86;99974.03;7395313;19;20014;-69
2023/10/22 01:33:40;;;;;;;5.28;4.55;;;;;;;11.67;97.77;99985.44;7393855;19;20037;-69
2023/10/22 01:36:15;;;;;;;5.13;4.63;;;;;;;11.66;97.93;99978.47;7394843;19;20489;-69
2023/10/22 01:38:46;;;;;;;5.47;4.57;;;;;;;11.65;98.01;99979.38;7393787;19;20031;-69
2023/10/22 01:41:14;;;;;;;8.32;5.15;;;;;;;11.65;97.93;99982.03;7403177;19;20018;-69
2023/10/22 01:43:43;;;;;;;5.43;4.75;;;;;;;11.63;98.05;99989.97;7401446;19;20018;-69
2023/10/22 01:46:11;;;;;;;5.63;4.10;;;;;;;11.62;97.88;99997.91;7402542;19;20078;-69
2023/10/22 01:48:40;;;;;;;6.88;3.90;;;;;;;11.62;97.99;100001.38;7399914;19;20018;-68
2023/10/22 01:51:08;;;;;;;6.05;3.97;;;;;;;11.61;98.07;99999.66;7399467;19;20018;-69
2023/10/22 01:53:37;;;;;;;5.85;3.35;;;;;;;11.61;98.12;100007.53;7402356;19;20424;-69
2023/10/22 01:56:09;;;;;;;5.97;3.65;;;;;;;11.61;98.00;100014.59;7399369;19;20023;-70
2023/10/22 01:58:37;;;;;;;4.13;3.70;;;;;;;11.60;97.98;100020.75;7399798;19;20025;-69
2023/10/22 02:01:06;;;;;;;6.70;3.45;;;;;;;11.60;97.76;100023.38;7402121;19;20010;-69
2023/10/22 02:03:36;;;;;;;4.88;3.42;;;;;;;11.58;98.04;100013.78;7401126;19;20086;-70
2023/10/22 02:06:04;;;;;;;5.60;3.13;;;;;;;11.55;98.27;100016.53;7401585;19;20015;-68
2023/10/22 02:08:39;;;;;;;3.78;3.08;;;;;;;11.54;98.38;100013.97;7398604;19;20537;-69
2023/10/22 02:11:17;;;;;;;5.50;3.70;;;;;;;11.49;98.54;100019.38;7401780;19;20365;-69
2023/10/22 02:13:46;;;;;;;5.82;3.40;;;;;;;11.44;99.03;100005.56;7399425;19;20027;-70
2023/10/22 02:16:14;;;;;;;4.60;3.60;;;;;;;11.41;99.66;100010.91;7401635;19;20410;-69
2023/10/22 02:18:43;;;;;;;5.13;3.40;;;;;;;11.37;99.87;100011.94;7399919;19;20015;-69
2023/10/22 02:21:11;;;;;;;3.90;3.33;;;;;;;11.33;100.00;100015.59;7398734;19;20082;-70
2023/10/22 02:23:40;;;;;;;4.13;3.65;;;;;;;11.29;100.00;100000.88;7400050;19;20440;-70
2023/10/22 02:26:09;;;;;;;4.50;4.00;;;;;;;11.24;100.00;100004.50;7401218;19;20017;-70
2023/10/22 02:28:40;;;;;;;5.05;3.42;;;;;;;11.22;100.00;100003.72;7398846;19;20070;-69
2023/10/22 02:31:10;;;;;;;5.65;3.80;;;;;;;11.21;100.00;100001.16;7398803;19;20090;-69
2023/10/22 02:33:38;;;;;;;6.72;3.80;;;;;;;11.20;100.00;100005.53;7398672;19;20015;-70
2023/10/22 02:36:07;;;;;;;4.53;3.55;;;;;;;11.19;100.00;100010.84;7400516;19;20481;-70
2023/10/22 02:38:38;;;;;;;4.80;3.60;;;;;;;11.16;100.00;100024.94;7398622;19;20024;-69
2023/10/22 02:41:06;;;;;;;4.18;3.75;;;;;;;11.12;100.00;100015.47;7398346;19;20018;-69
2023/10/22 02:43:35;;;;;;;4.40;3.58;;;;;;;11.14;100.00;100026.78;7400062;19;20014;-70
2023/10/22 02:46:06;;;;;;;5.50;4.72;;;;;;;11.13;100.00;100019.78;7400610;19;20078;-70
2023/10/22 02:48:34;;;;;;;5.18;4.47;;;;;;;11.12;100.00;100015.47;7398037;19;20425;-69
2023/10/22 02:51:06;;;;;;;7.35;4.20;;;;;;;11.14;100.00;100023.28;7395478;19;20022;-69
2023/10/22 02:53:34;;;;;;;6.00;4.50;;;;;;;11.12;100.00;100015.47;7398353;19;20070;-68
2023/10/22 02:56:03;;;;;;;6.88;4.63;;;;;;;11.10;100.00;100014.66;7397469;19;20023;-69
2023/10/22 02:58:32;;;;;;;4.47;3.92;;;;;;;11.09;100.00;100015.56;7398115;19;20028;-69
2023/10/22 03:01:08;;;;;;;5.82;4.45;;;;;;;11.08;100.00;100013.84;7399752;19;20540;-69
2023/10/22 03:03:41;;;;;;;7.13;4.10;;;;;;;11.07;100.00;100017.41;7399587;19;20499;-70
2023/10/22 03:06:09;;;;;;;3.97;3.50;;;;;;;11.06;100.00;100021.78;7397409;19;20485;-69
2023/10/22 03:08:39;;;;;;;4.63;3.97;;;;;;;11.07;100.00;100018.25;7397381;19;20419;-69
2023/10/22 03:11:08;;;;;;;4.53;3.70;;;;;;;11.08;100.00;100022.59;7399808;19;20094;-70
2023/10/22 03:13:37;;;;;;;5.50;4.05;;;;;;;11.09;100.00;100020.81;7399146;19;20007;-69
2023/10/22 03:16:15;;;;;;;4.55;3.58;;;;;;;11.07;100.00;100014.78;7397318;19;20062;-69
2023/10/22 03:18:45;;;;;;;6.03;4.63;;;;;;;11.08;100.00;100024.34;7397120;19;20011;-69
2023/10/22 03:21:14;;;;;;;6.60;5.90;;;;;;;11.07;100.00;100027.91;7399459;19;20074;-70
2023/10/22 03:23:43;;;;;;;6.30;5.15;;;;;;;11.07;100.00;100034.00;7398563;19;20007;-69
2023/10/22 03:26:14;;;;;;;6.43;4.82;;;;;;;11.08;100.00;100032.22;7398968;19;20013;-69
2023/10/22 03:28:42;;;;;;;6.22;4.70;;;;;;;11.08;100.00;100037.47;7396623;19;20393;-69
2023/10/22 03:31:14;;;;;;;4.45;4.03;;;;;;;11.08;100.00;100038.34;7396959;19;20070;-69
2023/10/22 03:33:43;;;;;;;4.35;3.42;;;;;;;11.08;100.00;100042.72;7397109;19;20031;-70
2023/10/22 03:36:14;;;;;;;6.35;3.72;;;;;;;11.07;100.00;100043.66;7396716;19;20022;-70
2023/10/22 03:38:42;;;;;;;4.10;3.20;;;;;;;11.07;100.00;100041.03;7396995;19;20074;-68
2023/10/22 03:41:11;;;;;;;5.57;3.72;;;;;;;11.05;100.00;100035.81;7398785;19;20412;-69
2023/10/22 03:43:39;;;;;;;3.67;3.38;;;;;;;11.05;100.00;100040.22;7398329;19;20077;-68
2023/10/22 03:46:07;;;;;;;5.63;4.68;;;;;;;11.04;100.00;100035.88;7395972;19;20422;-69
2023/10/22 03:48:39;;;;;;;6.60;5.22;;;;;;;11.04;100.00;100031.47;7396187;19;20607;-69
2023/10/22 03:51:07;;;;;;;6.63;5.95;;;;;;;11.03;100.00;100036.78;7398879;19;20418;-69
2023/10/22 03:53:36;;;;;;;8.88;6.85;;;;;;;11.03;100.00;100040.28;7398560;19;20051;-69
2023/10/22 03:56:05;;;;;;;6.43;5.78;;;;;;;11.03;100.00;100042.03;7396376;19;20093;-69
2023/10/22 03:58:33;;;;;;;8.45;5.40;;;;;;;11.04;100.00;100038.50;7396467;19;20015;-68
2023/10/22 04:01:02;;;;;;;6.90;4.72;;;;;;;11.03;100.00;100042.91;7398157;19;20091;-69
2023/10/22 04:03:30;;;;;;;7.28;5.60;;;;;;;11.02;100.00;100043.81;7396698;19;20027;-69
2023/10/22 04:06:01;;;;;;;7.18;5.32;;;;;;;11.02;100.00;100037.69;7395642;19;20094;-69
2023/10/22 04:08:30;;;;;;;5.55;4.32;;;;;;;11.02;100.00;100041.19;7396291;19;20154;-69
2023/10/22 04:10:58;;;;;;;5.57;4.90;;;;;;;11.03;100.00;100034.16;7397684;19;20018;-69
2023/10/22 04:13:27;;;;;;;4.78;4.38;;;;;;;11.02;100.00;100033.31;7395302;19;20461;-68
2023/10/22 04:15:55;;;;;;;5.75;4.30;;;;;;;11.02;100.00;100035.06;7397647;19;20066;-68
2023/10/22 04:18:23;;;;;;;7.45;6.70;;;;;;;11.03;100.00;100042.91;7396034;19;20018;-68
2023/10/22 04:20:52;;;;;;;6.28;5.38;;;;;;;11.04;100.00;100049.00;7397361;19;20073;-68
2023/10/22 04:23:24;;;;;;;6.22;4.05;;;;;;;11.03;100.00;100044.66;7395598;19;20015;-68
2023/10/22 04:25:52;;;;;;;6.40;4.80;;;;;;;11.03;100.00;100048.16;7396001;19;20073;-68
2023/10/22 04:28:21;;;;;;;4.95;4.45;;;;;;;11.03;100.00;100053.41;7395432;19;20078;-68
2023/10/22 04:30:49;;;;;;;4.75;4.30;;;;;;;11.03;100.00;100057.78;7395237;19;20027;-68
2023/10/22 04:33:17;;;;;;;4.50;4.03;;;;;;;11.04;100.00;100062.13;7395640;19;20031;-68
2023/10/22 04:35:46;;;;;;;5.00;3.47;;;;;;;11.03;100.00;100052.53;7397054;19;20015;-68
2023/10/22 04:38:15;;;;;;;4.60;3.90;;;;;;;11.02;100.00;100056.94;7395095;19;20085;-68
2023/10/22 04:40:46;;;;;;;4.00;3.70;;;;;;;11.02;100.00;100048.19;7396751;19;20032;-68
2023/10/22 04:43:14;;;;;;;7.35;5.00;;;;;;;11.01;100.00;100054.38;7397129;19;20131;-68
2023/10/22 04:45:48;;;;;;;4.85;4.00;;;;;;;11.01;100.00;100064.88;7394732;19;20029;-68
2023/10/22 04:48:17;;;;;;;7.90;3.78;;;;;;;11.01;100.00;100059.63;7395726;19;20021;-68
2023/10/22 04:50:46;;;;;;;4.15;3.78;;;;;;;11.01;100.00;100070.97;7396158;19;20079;-67
2023/10/22 04:53:14;;;;;;;3.78;3.15;;;;;;;11.01;100.00;100067.50;7396046;19;20366;-67
2023/10/22 04:55:42;;;;;;;5.22;3.78;;;;;;;11.00;100.00;100071.03;7396487;19;20027;-68
2023/10/22 04:58:14;;;;;;;6.07;3.97;;;;;;;10.99;100.00;100071.94;7394721;19;20426;-68
2023/10/22 05:00:42;;;;;;;4.82;3.65;;;;;;;10.99;100.00;100067.53;7394949;19;20011;-67
2023/10/22 05:03:12;;;;;;;4.78;3.42;;;;;;;10.99;100.00;100072.78;7395721;19;20078;-68
2023/10/22 05:05:40;;;;;;;4.13;3.72;;;;;;;10.99;100.00;100077.19;7393740;19;20387;-68
2023/10/22 05:08:10;;;;;;;34.13;22.45;;;;;;;10.98;100.00;100081.59;7394807;19;20090;-68
2023/10/22 05:10:39;;;;;;;9.48;6.95;;;;;;;10.97;100.00;100085.13;7394253;19;20074;-67
2023/10/22 05:13:08;;;;;;;18.15;12.93;;;;;;;10.98;100.00;100085.97;7394798;19;20481;-68
2023/10/22 05:15:39;;;;;;;9.50;6.20;;;;;;;10.97;100.00;100092.13;7394291;19;20540;-67
2023/10/22 05:18:09;;;;;;;5.15;4.15;;;;;;;10.96;100.00;100085.19;7394749;19;20066;-68
2023/10/22 05:20:38;;;;;;;4.40;3.63;;;;;;;10.96;100.00;100085.19;7394262;19;20014;-67
2023/10/22 05:23:07;;;;;;;6.72;3.80;;;;;;;10.95;100.00;100091.34;7395471;19;20074;-67
2023/10/22 05:25:36;;;;;;;4.65;3.90;;;;;;;10.94;100.00;100098.31;7394362;19;20049;-68
2023/10/22 05:28:05;;;;;;;4.30;3.90;;;;;;;10.92;100.00;100087.88;7394176;19;20362;-67
2023/10/22 05:30:33;;;;;;;3.65;3.35;;;;;;;10.92;100.00;100095.75;7395327;19;20034;-68
2023/10/22 05:33:04;;;;;;;5.65;3.40;;;;;;;10.90;100.00;100089.69;7394039;19;20425;-68
2023/10/22 05:35:37;;;;;;;4.82;3.15;;;;;;;10.90;100.00;100094.94;7394013;19;20078;-68
2023/10/22 05:38:05;;;;;;;4.97;3.25;;;;;;;10.89;100.00;100089.75;7393557;19;20032;-68
2023/10/22 05:40:38;;;;;;;5.50;3.50;;;;;;;10.88;100.00;100094.16;7395089;19;20078;-68
2023/10/22 05:43:07;;;;;;;5.47;3.22;;;;;;;10.86;100.00;100097.75;7395427;19;20025;-68
2023/10/22 05:45:35;;;;;;;4.05;3.15;;;;;;;10.83;100.00;100096.06;7393692;19;20430;-68
2023/10/22 05:48:07;;;;;;;3.85;3.33;;;;;;;10.82;100.00;100101.38;7392650;19;20074;-68
2023/10/22 05:50:39;;;;;;;4.03;3.65;;;;;;;10.80;100.00;100109.28;7394508;19;20431;-68
2023/10/22 05:53:08;;;;;;;6.75;5.60;;;;;;;10.78;100.00;100110.25;7393347;19;20077;-68
2023/10/22 05:55:37;;;;;;;7.22;4.72;;;;;;;10.74;100.00;100105.09;7394670;19;20022;-67
2023/10/22 05:58:06;;;;;;;5.93;5.13;;;;;;;10.72;100.00;100106.91;7393423;19;20074;-68
2023/10/22 06:00:34;;;;;;;5.78;4.65;;;;;;;10.71;100.00;100113.06;7394082;19;20010;-68
2023/10/22 06:03:05;;;;;;;4.95;4.05;;;;;;;10.70;100.00;100114.00;7394091;19;20555;-67
2023/10/22 06:05:34;;;;;;;5.43;3.78;;;;;;;10.69;100.00;100116.66;7392232;19;20019;-68
2023/10/22 06:08:02;;;;;;;5.70;4.47;;;;;;;10.67;100.00;100118.47;7392527;19;20087;-68
2023/10/22 06:10:30;;;;;;;4.95;3.58;;;;;;;10.66;100.00;100116.75;7394115;19;20037;-67
2023/10/22 06:12:59;;;;;;;4.75;4.25;;;;;;;10.63;100.00;100122.09;7393767;19;20011;-69
2023/10/22 06:15:28;;;;;;;4.32;3.33;;;;;;;10.62;100.00;100131.72;7394202;19;20014;-68
2023/10/22 06:17:56;;;;;;;5.07;3.92;;;;;;;10.60;100.00;100128.28;7392761;19;20021;-68
2023/10/22 06:20:27;;;;;;;6.40;3.90;;;;;;;10.58;100.00;100128.34;7394102;19;20015;-68
2023/10/22 06:22:56;;;;;;;3.50;3.17;;;;;;;10.57;100.00;100125.78;7393577;19;20548;-69
2023/10/22 06:25:24;;;;;;;4.38;3.92;;;;;;;10.56;100.00;100129.31;7394773;19;20418;-69
2023/10/22 06:27:55;;;;;;;6.65;4.32;;;;;;;10.53;100.00;100127.63;7399650;19;20080;-69
2023/10/22 06:30:25;;;;;;;5.85;4.30;;;;;;;10.52;100.00;100128.53;7400640;19;20010;-69
2023/10/22 06:32:54;;;;;;;6.68;5.03;;;;;;;10.50;100.00;100126.88;7399938;19;20022;-68
2023/10/22 06:35:23;;;;;;;6.70;4.88;;;;;;;10.47;100.00;100127.81;7400990;19;20078;-69
2023/10/22 06:37:54;;;;;;;6.30;4.80;;;;;;;10.46;100.00;100131.34;7398811;19;20023;-70
2023/10/22 06:40:23;;;;;;;7.65;5.05;;;;;;;10.45;100.00;100145.38;7400058;19;20070;-69
2023/10/22 06:42:52;;;;;;;12.85;11.18;;;;;;;10.43;100.00;100142.78;7400353;19;20081;-69
2023/10/22 06:45:21;;;;;;;11.45;10.00;;;;;;;10.41;100.00;100136.75;7397818;19;20003;-68
2023/10/22 06:47:50;;;;;;;7.72;5.32;;;;;;;10.41;100.00;100138.50;7398515;19;20418;-69
2023/10/22 06:50:19;;;;;;;5.65;4.28;;;;;;;10.40;100.00;100139.41;7400435;19;20014;-69
2023/10/22 06:52:47;;;;;;;8.00;4.43;;;;;;;10.39;100.00;100135.94;7400210;19;20421;-68
2023/10/22 06:55:18;;;;;;;8.30;5.57;;;;;;;10.39;100.00;100145.56;7400317;19;20031;-69
2023/10/22 06:57:47;;;;;;;8.10;5.60;;;;;;;10.36;100.00;100135.16;7398479;19;20420;-69
2023/10/22 07:00:16;;;;;;;7.97;5.55;;;;;;;10.36;100.00;100143.91;7399835;19;20079;-68
2023/10/22 07:02:46;;;;;;;8.20;5.60;;;;;;;10.37;100.00;100150.00;7396751;19;20015;-68
2023/10/22 07:05:14;;;;;;;7.55;6.10;;;;;;;10.37;100.00;100147.38;7398200;19;20029;-69
2023/10/22 07:07:44;;;;;;;7.68;4.40;;;;;;;10.36;100.00;100150.91;7397842;19;20017;-68
2023/10/22 07:10:12;;;;;;;6.28;4.80;;;;;;;10.37;100.00;100147.38;7399210;19;20392;-69
2023/10/22 07:12:43;;;;;;;7.53;5.50;;;;;;;10.36;100.00;100146.53;7398686;19;20086;-68
2023/10/22 07:15:12;;;;;;;7.40;6.07;;;;;;;10.38;100.00;100155.19;7399482;19;20074;-69
2023/10/22 07:17:41;;;;;;;7.88;7.07;;;;;;;10.38;100.00;100149.94;7396182;19;20074;-69
2023/10/22 07:20:12;;;;;;;9.05;6.55;;;;;;;10.39;100.00;100146.41;7396231;19;20011;-67
2023/10/22 07:22:40;;;;;;;8.65;6.45;;;;;;;10.41;100.00;100151.59;7399259;19;20015;-69
2023/10/22 07:25:10;;;;;;;6.25;5.63;;;;;;;10.43;100.00;100155.06;7397928;19;20210;-67
2023/10/22 07:27:38;;;;;;;5.88;5.25;;;;;;;10.44;100.00;100154.16;7398239;19;20086;-69
2023/10/22 07:30:11;;;;;;;5.65;4.88;;;;;;;10.45;100.00;100155.88;7398059;19;20514;-69
2023/10/22 07:32:39;;;;;;;7.45;6.15;;;;;;;10.46;100.00;100146.22;7398018;19;20073;-69
2023/10/22 07:35:08;;;;;;;10.88;5.97;;;;;;;10.47;100.00;100150.59;7398828;19;20066;-69
2023/10/22 07:37:40;;;;;;;6.32;5.43;;;;;;;10.48;100.00;100158.41;7396255;19;20078;-69
2023/10/22 07:40:11;;;;;;;6.38;5.28;;;;;;;10.49;100.00;100157.50;7398348;19;20512;-69
2023/10/22 07:42:45;;;;;;;6.30;3.80;;;;;;;10.51;100.00;100160.06;7396868;19;20070;-70
2023/10/22 07:45:16;;;;;;;5.28;4.05;;;;;;;10.52;100.00;100167.03;7396320;19;20145;-69
2023/10/22 07:47:45;;;;;;;6.25;3.70;;;;;;;10.54;100.00;100165.19;7397020;19;20083;-68
2023/10/22 07:50:13;;;;;;;5.10;3.92;;;;;;;10.56;100.00;100174.78;7398637;19;20424;-69
2023/10/22 07:52:42;;;;;;;6.22;4.18;;;;;;;10.59;100.00;100171.19;7396219;19;20014;-69
2023/10/22 07:55:11;;;;;;;6.75;4.10;;;;;;;10.62;100.00;100168.47;7397470;19;20421;-66
2023/10/22 07:57:39;;;;;;;5.70;3.58;;;;;;;10.64;100.00;100166.66;7395479;19;20015;-66
2023/10/22 08:00:09;;;;;;;6.15;3.50;;;;;;;10.68;100.00;100170.91;7395465;19;20078;-64
2023/10/22 08:02:40;;;;;;;4.88;3.75;;;;;;;10.73;100.00;100165.50;7397475;19;20078;-64
2023/10/22 08:05:10;;;;;;;6.03;3.88;;;;;;;10.79;100.00;100164.44;7395418;19;20014;-66
2023/10/22 08:07:38;;;;;;;6.65;3.83;;;;;;;10.84;100.00;100166.03;7396134;19;20416;-66
2023/10/22 08:10:13;;;;;;;4.15;3.42;;;;;;;10.90;100.00;100176.31;7394998;19;20085;-66
2023/10/22 08:12:41;;;;;;;6.68;3.78;;;;;;;10.94;100.00;100184.09;7395017;19;20094;-66
2023/10/22 08:15:11;;;;;;;4.65;3.50;;;;;;;10.99;100.00;100185.66;7395202;19;20517;-66
2023/10/22 08:17:42;;;;;;;4.13;3.67;;;;;;;11.05;100.00;100189.84;7395038;19;20545;-65
2023/10/22 08:20:11;;;;;;;4.50;2.95;;;;;;;11.10;100.00;100185.31;7396639;19;20074;-65
2023/10/22 08:22:39;;;;;;;3.95;3.13;;;;;;;11.17;100.00;100186.84;7395060;19;20434;-66
2023/10/22 08:25:08;;;;;;;5.53;3.50;;;;;;;11.22;100.00;100184.91;7394814;19;20074;-65
2023/10/22 08:27:37;;;;;;;4.20;3.03;;;;;;;11.28;100.00;100190.88;7394750;19;20078;-64
2023/10/22 08:30:06;;;;;;;5.18;3.80;;;;;;;11.33;100.00;100183.69;7396368;19;20074;-65
2023/10/22 08:32:35;;;;;;;5.57;3.40;;;;;;;11.37;100.00;100187.91;7395144;19;20081;-65
2023/10/22 08:35:08;;;;;;;3.63;3.22;;;;;;;11.41;100.00;100193.03;7395732;19;20082;-64
2023/10/22 08:37:37;;;;;;;5.18;3.30;;;;;;;11.46;100.00;100189.38;7396456;19;20018;-65
2023/10/22 08:40:08;;;;;;;5.10;3.35;;;;;;;11.49;100.00;100192.75;7396722;19;20010;-65
2023/10/22 08:42:38;;;;;;;4.68;3.70;;;;;;;11.55;100.00;100192.56;7397178;19;20018;-65
2023/10/22 08:45:08;;;;;;;8.13;4.90;;;;;;;11.61;100.00;100195.88;7396652;19;20423;-65
2023/10/22 08:47:37;;;;;;;11.63;9.30;;;;;;;11.64;100.00;100188.75;7394889;19;20019;-65
2023/10/22 08:50:12;;;;;;;11.32;8.50;;;;;;;11.68;100.00;100190.34;7394039;19;20094;-65
2023/10/22 08:52:40;;;;;;;12.15;8.57;;;;;;;11.73;100.00;100185.78;7396030;19;20090;-65
2023/10/22 08:55:10;;;;;;;10.20;4.95;;;;;;;11.78;100.00;100183.00;7395581;19;20069;-65
2023/10/22 08:57:38;;;;;;;6.10;4.50;;;;;;;11.83;100.00;100177.59;7393312;19;20074;-65
2023/10/22 09:00:13;;;;;;;4.60;2.92;;;;;;;11.86;100.00;100175.69;7395028;19;20010;-65
2023/10/22 09:02:43;;;;;;;4.53;3.33;;;;;;;11.90;100.00;100182.56;7395744;19;20019;-65
2023/10/22 09:05:14;;;;;;;4.40;2.78;;;;;;;11.96;100.00;100175.41;7393542;19;20018;-65
2023/10/22 09:07:56;;;;;;;3.65;2.30;;;;;;;11.98;100.00;100182.31;7393394;19;20014;-66
2023/10/22 09:10:30;;;;;;;3.47;2.20;;;;;;;12.02;100.00;100178.66;7395517;19;20011;-65
2023/10/22 09:13:11;;;;;;;;;;;;;;;12.03;100.00;100179.50;7394941;19;20070;-65
2023/10/22 09:15:47;;;;;;;3.88;2.08;;;;;;;12.05;100.00;100181.16;7394013;19;19914;-65
2023/10/22 09:18:17;;;;;;;4.90;2.78;;;;;;;12.09;100.00;100178.44;7393564;19;20010;-65
2023/10/22 09:20:49;;;;;;;4.10;2.60;;;;;;;12.11;100.00;100187.97;7395381;19;20070;-65
2023/10/22 09:23:20;;;;;;;3.95;1.70;;;;;;;12.15;100.00;100186.94;7393861;19;20022;-65
2023/10/22 09:25:50;;;;;;;5.30;1.92;;;;;;;12.20;100.00;100189.41;7394633;19;20015;-65
2023/10/22 09:28:21;;;;;;;3.58;2.05;;;;;;;12.24;100.00;100177.00;7393578;19;20019;-65
2023/10/22 09:30:57;;;;;;;4.22;1.75;;;;;;;12.28;100.00;100178.59;7394773;19;20435;-65
2023/10/22 09:33:33;;;;;;;4.55;1.70;;;;;;;12.29;100.00;100175.06;7393954;19;20085;-65
2023/10/22 09:36:06;;;;;;;1.92;1.58;;;;;;;12.31;100.00;100175.84;7394362;19;20350;-64
2023/10/22 09:38:45;;;;;;;2.05;1.88;;;;;;;12.31;100.00;100176.72;7392609;19;20043;-65
2023/10/22 09:41:15;;;;;;;5.38;2.40;;;;;;;12.32;100.00;100178.44;7393832;19;20473;-65
2023/10/22 09:43:43;;;;;;;3.75;1.98;;;;;;;12.33;100.00;100184.53;7392288;19;20014;-65
2023/10/22 09:46:12;;;;;;;3.05;1.80;;;;;;;12.34;100.00;100188.88;7393511;19;20485;-65
2023/10/22 09:48:43;;;;;;;4.85;1.90;;;;;;;12.37;100.00;100192.25;7392180;19;20060;-65
2023/10/22 09:51:17;;;;;;;2.45;1.63;;;;;;;12.40;100.00;100191.28;7393845;19;20021;-65
2023/10/22 09:53:48;;;;;;;3.22;1.30;;;;;;;12.43;100.00;100179.78;7392497;19;20366;-65
2023/10/22 09:56:21;;;;;;;9.50;1.85;;;;;;;12.48;100.00;100189.19;7392500;19;20070;-65
2023/10/22 09:58:51;;;;;;;3.15;1.60;;;;;;;12.52;100.00;100185.56;7392161;19;20417;-64
2023/10/22 10:01:20;;;;;;;9.13;5.00;;;;;;;12.57;100.00;100192.41;7399190;19;20018;-67
2023/10/22 10:03:50;;;;;;;3.30;1.90;;;;;;;12.60;100.00;100192.28;7400970;19;20027;-65
2023/10/22 10:06:21;;;;;;;4.00;1.45;;;;;;;12.63;100.00;100186.91;7399871;19;20011;-65
2023/10/22 10:08:51;;;;;;;6.47;1.50;;;;;;;12.67;100.00;100196.38;7398116;19;20533;-66
2023/10/22 10:11:20;;;;;;;4.40;1.80;;;;;;;12.72;100.00;100189.16;7401133;19;20477;-66
2023/10/22 10:13:48;;;;;;;6.00;1.98;;;;;;;12.78;100.00;100199.47;7400711;19;20422;-66
2023/10/22 10:16:17;;;;;;;3.75;1.75;;;;;;;12.84;100.00;100191.31;7398403;19;20070;-65
2023/10/22 10:19:04;;;;;;;5.57;3.42;;;;;;;12.88;100.00;100187.63;7403820;19;20032;-65
2023/10/22 10:21:47;;;;;;;8.00;3.22;;;;;;;12.98;100.00;100187.28;7400371;19;20086;-67
2023/10/22 10:24:24;;;;;;;2.93;1.90;;;;;;;13.04;100.00;100185.25;7400229;19;20086;-66
2023/10/22 10:26:55;;;;;;;2.30;1.17;;;;;;;13.11;100.00;100182.38;7397775;19;20089;-65
2023/10/22 10:29:25;;;;;;;8.32;1.88;;;;;;;13.18;100.00;100179.41;7402026;19;20014;-65
2023/10/22 10:31:55;;;;;;;4.07;1.67;;;;;;;13.25;99.22;100185.28;7399680;19;20066;-65
2023/10/22 10:34:28;;;;;;;3.42;1.50;;;;;;;13.34;97.61;100184.03;7397593;19;20018;-65
2023/10/22 10:37:00;;;;;;;5.53;1.73;;;;;;;13.42;96.51;100184.59;7399534;19;20066;-65
2023/10/22 10:39:42;;;;;;;4.28;1.58;;;;;;;13.50;90.09;100193.03;7400194;19;20066;-66
2023/10/22 10:42:11;;;;;;;2.78;1.23;;;;;;;13.60;93.30;100190.84;7400223;19;20011;-65
2023/10/22 10:45:05;;;;;;;5.90;2.80;;;;;;;13.69;91.27;100190.44;7397564;19;20070;-66
2023/10/22 10:47:34;;;;;;;6.00;3.05;;;;;;;13.81;93.11;100178.53;7398101;19;20031;-66
2023/10/22 10:50:05;;;;;;;1.92;1.10;;;;;;;13.91;92.27;100172.84;7398088;19;20021;-66
2023/10/22 10:53:02;;;;;;;2.75;0.95;;;;;;;13.98;84.35;100175.13;7397474;19;20007;-66
2023/10/22 10:55:32;;;;;;;5.05;1.20;;;;;;;14.06;88.16;100176.56;7400731;19;20011;-66
2023/10/22 10:58:03;;;;;;;9.27;2.10;;;;;;;14.12;88.03;100173.66;7398379;19;20492;-66
2023/10/22 11:00:33;;;;;;;5.70;1.75;;;;;;;14.17;86.53;100180.41;7397134;19;20311;-66
2023/10/22 11:03:04;;;;;;;2.28;1.00;;;;;;;14.23;85.39;100178.41;7397197;19;20027;-66
2023/10/22 11:05:42;;;;;;;5.78;1.20;;;;;;;14.27;84.35;100175.59;7399203;19;20022;-66
2023/10/22 11:08:18;;;;;;;4.28;1.38;;;;;;;14.32;84.16;100180.66;7397606;19;20109;-66
2023/10/22 11:10:47;;;;;;;2.88;1.05;;;;;;;14.38;84.36;100177.72;7396963;19;20010;-65
2023/10/22 11:13:16;;;;;;;4.00;1.73;;;;;;;14.41;84.09;100174.94;7396462;19;20367;-65
2023/10/22 11:15:44;;;;;;;3.47;1.10;;;;;;;14.46;84.98;100169.44;7399040;19;20022;-65
2023/10/22 11:18:13;;;;;;;3.42;1.52;;;;;;;14.53;83.30;100175.28;7397761;19;20043;-65
2023/10/22 11:20:42;;;;;;;5.03;1.33;;;;;;;14.58;84.65;100168.84;7396454;19;20066;-65
2023/10/22 11:23:21;;;;;;;3.10;1.00;;;;;;;14.65;82.71;100175.59;7399149;19;20078;-65
2023/10/22 11:25:50;;;;;;;3.58;1.13;;;;;;;14.72;84.43;100172.66;7398749;19;20070;-66
2023/10/22 11:28:18;;;;;;;3.05;1.02;;;;;;;14.80;84.51;100174.00;7396368;19;20527;-65
2023/10/22 11:30:46;;;;;;;3.72;1.25;;;;;;;14.90;84.07;100181.47;7398882;19;20086;-65
2023/10/22 11:33:42;;;;;;;5.50;2.70;;;;;;;15.00;79.07;100180.09;7395838;19;20078;-65